sensor_id;sensor_type;location;lat;lon;timestamp;temperature;humidity
75652;HTU21D;64248;43.602;39.724;2022-12-18T00:01:19;18.43;47.79
75652;HTU21D;64248;43.602;39.724;2022-12-18T00:03:46;18.44;47.76
75652;HTU21D;64248;43.602;39.724;2022-12-18T00:06:13;18.42;47.83
75652;HTU21D;64248;43.602;39.724;2022-12-18T00:08:41;18.40;47.74
75652;HTU21D;64248;43.602;39.724;2022-12-18T00:11:08;18.38;47.55
75652;HTU21D;64248;43.602;39.724;2022-12-18T00:13:34;18.29;47.77
75652;HTU21D;64248;43.602;39.724;2022-12-18T00:16:02;18.24;47.88
75652;HTU21D;64248;43.602;39.724;2022-12-18T00:18:28;18.23;48.17
75652;HTU21D;64248;43.602;39.724;2022-12-18T00:21:01;18.25;48.26
75652;HTU21D;64248;43.602;39.724;2022-12-18T00:23:29;18.26;48.02
75652;HTU21D;64248;43.602;39.724;2022-12-18T00:25:59;18.29;47.88
75652;HTU21D;64248;43.602;39.724;2022-12-18T00:28:25;18.30;47.76
75652;HTU21D;64248;43.602;39.724;2022-12-18T00:30:58;18.30;47.76
75652;HTU21D;64248;43.602;39.724;2022-12-18T00:33:25;18.30;47.86
75652;HTU21D;64248;43.602;39.724;2022-12-18T00:35:50;18.33;47.77
75652;HTU21D;64248;43.602;39.724;2022-12-18T00:38:16;18.35;47.70
75652;HTU21D;64248;43.602;39.724;2022-12-18T00:40:43;18.38;47.64
75652;HTU21D;64248;43.602;39.724;2022-12-18T00:43:11;18.40;47.74
75652;HTU21D;64248;43.602;39.724;2022-12-18T00:45:37;18.43;47.58
75652;HTU21D;64248;43.602;39.724;2022-12-18T00:48:04;18.46;47.41
75652;HTU21D;64248;43.602;39.724;2022-12-18T00:50:30;18.48;47.55
75652;HTU21D;64248;43.602;39.724;2022-12-18T00:52:56;18.53;47.61
75652;HTU21D;64248;43.602;39.724;2022-12-18T00:55:22;18.57;47.57
75652;HTU21D;64248;43.602;39.724;2022-12-18T00:57:47;18.62;47.60
75652;HTU21D;64248;43.602;39.724;2022-12-18T01:00:14;18.68;47.44
75652;HTU21D;64248;43.602;39.724;2022-12-18T01:02:42;18.72;47.54
75652;HTU21D;64248;43.602;39.724;2022-12-18T01:05:09;18.79;47.58
75652;HTU21D;64248;43.602;39.724;2022-12-18T01:07:35;18.83;47.33
75652;HTU21D;64248;43.602;39.724;2022-12-18T01:10:03;18.86;47.36
75652;HTU21D;64248;43.602;39.724;2022-12-18T01:12:29;18.91;47.29
75652;HTU21D;64248;43.602;39.724;2022-12-18T01:14:55;18.93;47.26
75652;HTU21D;64248;43.602;39.724;2022-12-18T01:17:22;18.95;47.47
75652;HTU21D;64248;43.602;39.724;2022-12-18T01:19:47;18.98;47.39
75652;HTU21D;64248;43.602;39.724;2022-12-18T01:22:13;18.99;47.08
75652;HTU21D;64248;43.602;39.724;2022-12-18T01:24:39;18.99;46.97
75652;HTU21D;64248;43.602;39.724;2022-12-18T01:27:05;19.00;46.76
75652;HTU21D;64248;43.602;39.724;2022-12-18T01:29:32;19.01;46.95
75652;HTU21D;64248;43.602;39.724;2022-12-18T01:31:58;19.03;46.84
75652;HTU21D;64248;43.602;39.724;2022-12-18T01:34:24;19.05;46.63
75652;HTU21D;64248;43.602;39.724;2022-12-18T01:36:50;19.06;46.39
75652;HTU21D;64248;43.602;39.724;2022-12-18T01:39:19;19.05;46.25
75652;HTU21D;64248;43.602;39.724;2022-12-18T01:41:45;19.01;46.08
75652;HTU21D;64248;43.602;39.724;2022-12-18T01:44:59;18.95;46.01
75652;HTU21D;64248;43.602;39.724;2022-12-18T01:49:59;18.84;46.05
75652;HTU21D;64248;43.602;39.724;2022-12-18T01:52:31;18.78;46.10
75652;HTU21D;64248;43.602;39.724;2022-12-18T01:54:58;18.71;45.96
75652;HTU21D;64248;43.602;39.724;2022-12-18T01:57:26;18.65;45.81
75652;HTU21D;64248;43.602;39.724;2022-12-18T01:59:55;18.54;45.94
75652;HTU21D;64248;43.602;39.724;2022-12-18T02:02:22;18.44;46.06
75652;HTU21D;64248;43.602;39.724;2022-12-18T02:04:48;18.39;46.15
75652;HTU21D;64248;43.602;39.724;2022-12-18T02:10:26;18.32;46.28
75652;HTU21D;64248;43.602;39.724;2022-12-18T02:13:06;18.32;46.34
75652;HTU21D;64248;43.602;39.724;2022-12-18T02:18:24;18.33;46.49
75652;HTU21D;64248;43.602;39.724;2022-12-18T02:23:52;18.30;46.44
75652;HTU21D;64248;43.602;39.724;2022-12-18T02:26:28;18.33;46.51
75652;HTU21D;64248;43.602;39.724;2022-12-18T02:29:15;18.30;46.48
75652;HTU21D;64248;43.602;39.724;2022-12-18T02:31:47;18.30;46.31
75652;HTU21D;64248;43.602;39.724;2022-12-18T02:34:14;18.30;46.37
75652;HTU21D;64248;43.602;39.724;2022-12-18T02:36:43;18.29;46.47
75652;HTU21D;64248;43.602;39.724;2022-12-18T02:39:11;18.28;46.31
75652;HTU21D;64248;43.602;39.724;2022-12-18T02:41:44;18.26;46.19
75652;HTU21D;64248;43.602;39.724;2022-12-18T02:44:12;18.25;46.16
75652;HTU21D;64248;43.602;39.724;2022-12-18T02:46:49;18.23;46.24
75652;HTU21D;64248;43.602;39.724;2022-12-18T02:49:53;18.21;46.25
75652;HTU21D;64248;43.602;39.724;2022-12-18T02:52:47;18.20;46.27
75652;HTU21D;64248;43.602;39.724;2022-12-18T02:58:36;18.18;46.66
75652;HTU21D;64248;43.602;39.724;2022-12-18T03:04:14;18.18;46.57
75652;HTU21D;64248;43.602;39.724;2022-12-18T03:06:46;18.18;46.60
75652;HTU21D;64248;43.602;39.724;2022-12-18T03:09:35;18.19;46.43
75652;HTU21D;64248;43.602;39.724;2022-12-18T03:12:24;18.20;46.39
75652;HTU21D;64248;43.602;39.724;2022-12-18T03:17:31;18.24;46.36
75652;HTU21D;64248;43.602;39.724;2022-12-18T03:20:22;18.23;46.29
75652;HTU21D;64248;43.602;39.724;2022-12-18T03:22:51;18.25;46.38
75652;HTU21D;64248;43.602;39.724;2022-12-18T03:25:19;18.26;46.33
75652;HTU21D;64248;43.602;39.724;2022-12-18T03:27:49;18.27;46.31
75652;HTU21D;64248;43.602;39.724;2022-12-18T03:30:17;18.32;46.57
75652;HTU21D;64248;43.602;39.724;2022-12-18T03:32:48;18.32;46.24
75652;HTU21D;64248;43.602;39.724;2022-12-18T03:35:21;18.28;46.28
75652;HTU21D;64248;43.602;39.724;2022-12-18T03:37:48;18.29;46.41
75652;HTU21D;64248;43.602;39.724;2022-12-18T03:40:14;18.30;46.28
75652;HTU21D;64248;43.602;39.724;2022-12-18T03:43:07;18.33;46.51
75652;HTU21D;64248;43.602;39.724;2022-12-18T03:45:40;18.36;46.15
75652;HTU21D;64248;43.602;39.724;2022-12-18T03:48:21;18.41;46.05
75652;HTU21D;64248;43.602;39.724;2022-12-18T03:50:58;18.46;45.96
75652;HTU21D;64248;43.602;39.724;2022-12-18T03:56:18;18.56;45.78
75652;HTU21D;64248;43.602;39.724;2022-12-18T03:58:45;18.59;45.61
75652;HTU21D;64248;43.602;39.724;2022-12-18T04:01:18;18.65;45.48
75652;HTU21D;64248;43.602;39.724;2022-12-18T04:03:47;18.68;45.25
75652;HTU21D;64248;43.602;39.724;2022-12-18T04:06:17;18.70;45.03
75652;HTU21D;64248;43.602;39.724;2022-12-18T04:08:44;18.71;45.04
75652;HTU21D;64248;43.602;39.724;2022-12-18T04:11:15;18.72;44.97
75652;HTU21D;64248;43.602;39.724;2022-12-18T04:13:43;18.74;44.94
75652;HTU21D;64248;43.602;39.724;2022-12-18T04:16:16;18.79;44.84
75652;HTU21D;64248;43.602;39.724;2022-12-18T04:18:44;18.82;44.71
75652;HTU21D;64248;43.602;39.724;2022-12-18T04:21:10;18.82;44.54
75652;HTU21D;64248;43.602;39.724;2022-12-18T04:23:37;18.83;44.51
75652;HTU21D;64248;43.602;39.724;2022-12-18T04:26:03;18.84;44.54
75652;HTU21D;64248;43.602;39.724;2022-12-18T04:28:42;18.85;44.37
75652;HTU21D;64248;43.602;39.724;2022-12-18T04:31:08;18.85;44.46
75652;HTU21D;64248;43.602;39.724;2022-12-18T04:33:34;18.83;44.46
75652;HTU21D;64248;43.602;39.724;2022-12-18T04:36:01;18.80;44.52
75652;HTU21D;64248;43.602;39.724;2022-12-18T04:38:27;18.78;44.49
75652;HTU21D;64248;43.602;39.724;2022-12-18T04:41:01;18.73;44.57
75652;HTU21D;64248;43.602;39.724;2022-12-18T04:43:27;18.69;44.53
75652;HTU21D;64248;43.602;39.724;2022-12-18T04:45:53;18.66;44.69
75652;HTU21D;64248;43.602;39.724;2022-12-18T04:48:19;18.64;44.83
75652;HTU21D;64248;43.602;39.724;2022-12-18T04:50:46;18.62;44.92
75652;HTU21D;64248;43.602;39.724;2022-12-18T04:53:13;18.62;45.00
75652;HTU21D;64248;43.602;39.724;2022-12-18T04:55:39;18.62;45.15
75652;HTU21D;64248;43.602;39.724;2022-12-18T04:58:04;18.61;44.96
75652;HTU21D;64248;43.602;39.724;2022-12-18T05:00:30;18.58;44.78
75652;HTU21D;64248;43.602;39.724;2022-12-18T05:02:56;18.58;44.96
75652;HTU21D;64248;43.602;39.724;2022-12-18T05:05:22;18.57;44.96
75652;HTU21D;64248;43.602;39.724;2022-12-18T05:07:48;18.54;44.97
75652;HTU21D;64248;43.602;39.724;2022-12-18T05:10:14;18.53;44.71
75652;HTU21D;64248;43.602;39.724;2022-12-18T05:12:40;18.50;44.67
75652;HTU21D;64248;43.602;39.724;2022-12-18T05:15:26;18.47;44.61
75652;HTU21D;64248;43.602;39.724;2022-12-18T05:17:51;18.39;44.83
75652;HTU21D;64248;43.602;39.724;2022-12-18T05:20:17;18.39;44.90
75652;HTU21D;64248;43.602;39.724;2022-12-18T05:22:44;18.37;44.91
75652;HTU21D;64248;43.602;39.724;2022-12-18T05:25:09;18.38;44.83
75652;HTU21D;64248;43.602;39.724;2022-12-18T05:27:35;18.38;44.92
75652;HTU21D;64248;43.602;39.724;2022-12-18T05:30:02;18.39;44.99
75652;HTU21D;64248;43.602;39.724;2022-12-18T05:32:28;18.38;44.98
75652;HTU21D;64248;43.602;39.724;2022-12-18T05:34:54;18.40;44.95
75652;HTU21D;64248;43.602;39.724;2022-12-18T05:37:20;18.40;44.99
75652;HTU21D;64248;43.602;39.724;2022-12-18T05:39:46;18.40;44.97
75652;HTU21D;64248;43.602;39.724;2022-12-18T05:42:12;18.40;45.06
75652;HTU21D;64248;43.602;39.724;2022-12-18T05:44:38;18.42;45.21
75652;HTU21D;64248;43.602;39.724;2022-12-18T05:47:04;18.42;45.21
75652;HTU21D;64248;43.602;39.724;2022-12-18T05:49:29;18.43;45.39
75652;HTU21D;64248;43.602;39.724;2022-12-18T05:51:55;18.44;45.46
75652;HTU21D;64248;43.602;39.724;2022-12-18T05:54:21;18.47;45.48
75652;HTU21D;64248;43.602;39.724;2022-12-18T05:56:47;18.48;45.31
75652;HTU21D;64248;43.602;39.724;2022-12-18T05:59:13;18.49;45.19
75652;HTU21D;64248;43.602;39.724;2022-12-18T06:01:39;18.48;45.08
75652;HTU21D;64248;43.602;39.724;2022-12-18T06:04:05;18.43;45.08
75652;HTU21D;64248;43.602;39.724;2022-12-18T06:06:30;18.40;45.21
75652;HTU21D;64248;43.602;39.724;2022-12-18T06:08:57;18.40;45.21
75652;HTU21D;64248;43.602;39.724;2022-12-18T06:11:26;18.40;45.32
75652;HTU21D;64248;43.602;39.724;2022-12-18T06:13:56;18.40;45.34
75652;HTU21D;64248;43.602;39.724;2022-12-18T06:16:22;18.42;45.29
75652;HTU21D;64248;43.602;39.724;2022-12-18T06:18:48;18.43;45.26
75652;HTU21D;64248;43.602;39.724;2022-12-18T06:21:14;18.44;45.32
75652;HTU21D;64248;43.602;39.724;2022-12-18T06:23:39;18.42;45.51
75652;HTU21D;64248;43.602;39.724;2022-12-18T06:26:10;18.41;45.76
75652;HTU21D;64248;43.602;39.724;2022-12-18T06:28:37;18.44;45.86
75652;HTU21D;64248;43.602;39.724;2022-12-18T06:31:04;18.47;46.06
75652;HTU21D;64248;43.602;39.724;2022-12-18T06:33:30;18.49;45.96
75652;HTU21D;64248;43.602;39.724;2022-12-18T06:36:14;18.52;46.28
75652;HTU21D;64248;43.602;39.724;2022-12-18T06:38:42;18.57;46.18
75652;HTU21D;64248;43.602;39.724;2022-12-18T06:41:13;18.64;46.34
75652;HTU21D;64248;43.602;39.724;2022-12-18T06:43:40;18.70;46.28
75652;HTU21D;64248;43.602;39.724;2022-12-18T06:46:06;18.78;46.35
75652;HTU21D;64248;43.602;39.724;2022-12-18T06:48:33;18.87;46.41
75652;HTU21D;64248;43.602;39.724;2022-12-18T06:51:00;18.98;46.12
75652;HTU21D;64248;43.602;39.724;2022-12-18T06:53:26;19.07;45.98
75652;HTU21D;64248;43.602;39.724;2022-12-18T06:55:58;19.15;46.07
75652;HTU21D;64248;43.602;39.724;2022-12-18T06:58:24;19.24;45.88
75652;HTU21D;64248;43.602;39.724;2022-12-18T07:00:50;19.29;45.74
75652;HTU21D;64248;43.602;39.724;2022-12-18T07:03:17;19.36;45.99
75652;HTU21D;64248;43.602;39.724;2022-12-18T07:05:43;19.40;46.15
75652;HTU21D;64248;43.602;39.724;2022-12-18T07:08:09;19.45;46.29
75652;HTU21D;64248;43.602;39.724;2022-12-18T07:10:41;19.51;46.04
75652;HTU21D;64248;43.602;39.724;2022-12-18T07:13:07;19.54;46.05
75652;HTU21D;64248;43.602;39.724;2022-12-18T07:15:33;19.59;45.98
75652;HTU21D;64248;43.602;39.724;2022-12-18T07:17:59;19.61;45.87
75652;HTU21D;64248;43.602;39.724;2022-12-18T07:20:25;19.67;45.78
75652;HTU21D;64248;43.602;39.724;2022-12-18T07:22:51;19.71;45.83
75652;HTU21D;64248;43.602;39.724;2022-12-18T07:25:17;19.74;45.76
75652;HTU21D;64248;43.602;39.724;2022-12-18T07:27:43;19.79;45.89
75652;HTU21D;64248;43.602;39.724;2022-12-18T07:30:09;19.83;45.95
75652;HTU21D;64248;43.602;39.724;2022-12-18T07:32:35;19.86;46.12
75652;HTU21D;64248;43.602;39.724;2022-12-18T07:35:01;19.94;46.02
75652;HTU21D;64248;43.602;39.724;2022-12-18T07:37:27;20.02;45.98
75652;HTU21D;64248;43.602;39.724;2022-12-18T07:39:53;20.12;45.93
75652;HTU21D;64248;43.602;39.724;2022-12-18T07:42:19;20.24;45.97
75652;HTU21D;64248;43.602;39.724;2022-12-18T07:45:01;20.35;45.99
75652;HTU21D;64248;43.602;39.724;2022-12-18T07:47:28;20.46;46.22
75652;HTU21D;64248;43.602;39.724;2022-12-18T07:49:57;20.58;45.77
75652;HTU21D;64248;43.602;39.724;2022-12-18T07:52:23;20.68;45.90
75652;HTU21D;64248;43.602;39.724;2022-12-18T07:54:49;20.76;45.59
75652;HTU21D;64248;43.602;39.724;2022-12-18T07:57:16;20.87;45.64
75652;HTU21D;64248;43.602;39.724;2022-12-18T07:59:42;21.02;45.61
75652;HTU21D;64248;43.602;39.724;2022-12-18T08:02:08;21.11;45.41
75652;HTU21D;64248;43.602;39.724;2022-12-18T08:04:34;21.17;45.87
75652;HTU21D;64248;43.602;39.724;2022-12-18T08:07:00;21.14;45.52
75652;HTU21D;64248;43.602;39.724;2022-12-18T08:09:26;21.10;45.89
75652;HTU21D;64248;43.602;39.724;2022-12-18T08:11:52;21.06;46.12
75652;HTU21D;64248;43.602;39.724;2022-12-18T08:14:18;21.03;46.44
75652;HTU21D;64248;43.602;39.724;2022-12-18T08:16:44;21.00;46.62
75652;HTU21D;64248;43.602;39.724;2022-12-18T08:19:09;21.00;46.26
75652;HTU21D;64248;43.602;39.724;2022-12-18T08:21:35;21.01;46.51
75652;HTU21D;64248;43.602;39.724;2022-12-18T08:24:02;21.05;46.73
75652;HTU21D;64248;43.602;39.724;2022-12-18T08:26:30;21.14;46.21
75652;HTU21D;64248;43.602;39.724;2022-12-18T08:28:57;21.16;46.22
75652;HTU21D;64248;43.602;39.724;2022-12-18T08:31:24;21.13;45.35
75652;HTU21D;64248;43.602;39.724;2022-12-18T08:33:51;21.01;46.25
75652;HTU21D;64248;43.602;39.724;2022-12-18T08:36:18;20.93;46.11
75652;HTU21D;64248;43.602;39.724;2022-12-18T08:38:45;20.93;46.16
75652;HTU21D;64248;43.602;39.724;2022-12-18T08:41:13;21.04;45.96
75652;HTU21D;64248;43.602;39.724;2022-12-18T08:43:40;21.20;45.89
75652;HTU21D;64248;43.602;39.724;2022-12-18T08:46:25;21.39;45.51
75652;HTU21D;64248;43.602;39.724;2022-12-18T08:48:53;21.52;46.09
75652;HTU21D;64248;43.602;39.724;2022-12-18T08:51:19;21.74;45.92
75652;HTU21D;64248;43.602;39.724;2022-12-18T08:53:46;21.91;44.96
75652;HTU21D;64248;43.602;39.724;2022-12-18T08:56:12;22.02;45.05
75652;HTU21D;64248;43.602;39.724;2022-12-18T08:58:38;22.19;45.99
75652;HTU21D;64248;43.602;39.724;2022-12-18T09:01:07;22.36;44.55
75652;HTU21D;64248;43.602;39.724;2022-12-18T09:03:34;22.50;43.84
75652;HTU21D;64248;43.602;39.724;2022-12-18T09:06:01;22.57;43.18
75652;HTU21D;64248;43.602;39.724;2022-12-18T09:08:27;22.63;42.68
75652;HTU21D;64248;43.602;39.724;2022-12-18T09:10:53;22.72;42.66
75652;HTU21D;64248;43.602;39.724;2022-12-18T09:13:19;22.85;41.88
75652;HTU21D;64248;43.602;39.724;2022-12-18T09:15:47;22.97;41.29
75652;HTU21D;64248;43.602;39.724;2022-12-18T09:18:16;23.08;40.84
75652;HTU21D;64248;43.602;39.724;2022-12-18T09:20:43;23.22;40.78
75652;HTU21D;64248;43.602;39.724;2022-12-18T09:23:09;23.44;41.23
75652;HTU21D;64248;43.602;39.724;2022-12-18T09:25:36;23.77;41.87
75652;HTU21D;64248;43.602;39.724;2022-12-18T09:28:04;24.21;41.42
75652;HTU21D;64248;43.602;39.724;2022-12-18T09:30:30;24.63;39.36
75652;HTU21D;64248;43.602;39.724;2022-12-18T09:32:59;24.89;38.09
75652;HTU21D;64248;43.602;39.724;2022-12-18T09:35:25;25.05;37.28
75652;HTU21D;64248;43.602;39.724;2022-12-18T09:37:51;25.21;36.87
75652;HTU21D;64248;43.602;39.724;2022-12-18T09:40:21;25.37;36.30
75652;HTU21D;64248;43.602;39.724;2022-12-18T09:43:00;25.48;36.99
75652;HTU21D;64248;43.602;39.724;2022-12-18T09:45:44;25.62;36.30
75652;HTU21D;64248;43.602;39.724;2022-12-18T09:48:28;25.77;36.00
75652;HTU21D;64248;43.602;39.724;2022-12-18T09:51:00;25.79;36.04
75652;HTU21D;64248;43.602;39.724;2022-12-18T09:53:31;25.68;35.56
75652;HTU21D;64248;43.602;39.724;2022-12-18T09:56:00;25.64;36.14
75652;HTU21D;64248;43.602;39.724;2022-12-18T09:58:31;25.78;35.21
75652;HTU21D;64248;43.602;39.724;2022-12-18T10:00:58;26.05;35.03
75652;HTU21D;64248;43.602;39.724;2022-12-18T10:03:25;26.36;34.37
75652;HTU21D;64248;43.602;39.724;2022-12-18T10:08:51;26.92;33.31
75652;HTU21D;64248;43.602;39.724;2022-12-18T10:14:36;27.02;33.53
75652;HTU21D;64248;43.602;39.724;2022-12-18T10:19:55;27.50;32.19
75652;HTU21D;64248;43.602;39.724;2022-12-18T10:22:50;27.71;32.22
75652;HTU21D;64248;43.602;39.724;2022-12-18T10:27:44;28.19;30.81
75652;HTU21D;64248;43.602;39.724;2022-12-18T10:30:20;28.40;30.37
75652;HTU21D;64248;43.602;39.724;2022-12-18T10:32:46;28.60;29.68
75652;HTU21D;64248;43.602;39.724;2022-12-18T10:35:23;28.71;29.55
75652;HTU21D;64248;43.602;39.724;2022-12-18T10:43:36;29.27;30.61
75652;HTU21D;64248;43.602;39.724;2022-12-18T10:46:12;29.28;28.77
75652;HTU21D;64248;43.602;39.724;2022-12-18T10:48:50;29.15;29.00
75652;HTU21D;64248;43.602;39.724;2022-12-18T10:51:29;29.05;29.63
75652;HTU21D;64248;43.602;39.724;2022-12-18T10:53:57;29.09;29.01
75652;HTU21D;64248;43.602;39.724;2022-12-18T10:56:25;29.01;29.69
75652;HTU21D;64248;43.602;39.724;2022-12-18T10:59:00;28.94;30.10
75652;HTU21D;64248;43.602;39.724;2022-12-18T11:01:26;28.95;29.90
75652;HTU21D;64248;43.602;39.724;2022-12-18T11:06:22;28.76;29.49
75652;HTU21D;64248;43.602;39.724;2022-12-18T11:09:30;28.33;29.80
75652;HTU21D;64248;43.602;39.724;2022-12-18T11:11:57;27.79;29.59
75652;HTU21D;64248;43.602;39.724;2022-12-18T11:14:43;26.98;30.67
75652;HTU21D;64248;43.602;39.724;2022-12-18T11:19:56;25.67;31.69
75652;HTU21D;64248;43.602;39.724;2022-12-18T11:22:35;25.17;33.38
75652;HTU21D;64248;43.602;39.724;2022-12-18T11:25:17;24.77;33.47
75652;HTU21D;64248;43.602;39.724;2022-12-18T11:27:59;24.32;34.23
75652;HTU21D;64248;43.602;39.724;2022-12-18T11:30:34;24.03;34.92
75652;HTU21D;64248;43.602;39.724;2022-12-18T11:38:41;23.66;36.10
75652;HTU21D;64248;43.602;39.724;2022-12-18T11:41:21;23.54;36.49
75652;HTU21D;64248;43.602;39.724;2022-12-18T11:44:11;23.45;36.44
75652;HTU21D;64248;43.602;39.724;2022-12-18T11:47:01;23.37;36.65
75652;HTU21D;64248;43.602;39.724;2022-12-18T11:49:33;23.30;37.56
75652;HTU21D;64248;43.602;39.724;2022-12-18T11:52:08;23.25;37.76
75652;HTU21D;64248;43.602;39.724;2022-12-18T11:54:34;23.22;38.98
75652;HTU21D;64248;43.602;39.724;2022-12-18T11:59:55;23.26;39.10
75652;HTU21D;64248;43.602;39.724;2022-12-18T12:03:06;23.28;38.78
75652;HTU21D;64248;43.602;39.724;2022-12-18T12:14:00;23.08;40.01
75652;HTU21D;64248;43.602;39.724;2022-12-18T12:16:54;23.17;41.33
75652;HTU21D;64248;43.602;39.724;2022-12-18T12:25:19;23.50;40.09
75652;HTU21D;64248;43.602;39.724;2022-12-18T12:38:52;23.31;40.24
75652;HTU21D;64248;43.602;39.724;2022-12-18T12:41:23;23.31;40.05
75652;HTU21D;64248;43.602;39.724;2022-12-18T12:44:14;23.25;39.62
75652;HTU21D;64248;43.602;39.724;2022-12-18T12:46:41;23.24;39.75
75652;HTU21D;64248;43.602;39.724;2022-12-18T12:49:19;23.23;39.29
75652;HTU21D;64248;43.602;39.724;2022-12-18T12:52:04;23.16;38.34
75652;HTU21D;64248;43.602;39.724;2022-12-18T12:54:32;22.99;37.57
75652;HTU21D;64248;43.602;39.724;2022-12-18T13:02:29;22.17;37.51
75652;HTU21D;64248;43.602;39.724;2022-12-18T13:05:00;21.89;37.40
75652;HTU21D;64248;43.602;39.724;2022-12-18T13:07:45;21.61;37.98
75652;HTU21D;64248;43.602;39.724;2022-12-18T13:12:57;21.13;38.72
75652;HTU21D;64248;43.602;39.724;2022-12-18T13:34:17;19.58;42.13
75652;HTU21D;64248;43.602;39.724;2022-12-18T13:36:43;19.46;42.53
75652;HTU21D;64248;43.602;39.724;2022-12-18T13:41:35;19.25;43.00
75652;HTU21D;64248;43.602;39.724;2022-12-18T13:44:33;19.16;42.97
75652;HTU21D;64248;43.602;39.724;2022-12-18T13:47:03;19.06;43.16
75652;HTU21D;64248;43.602;39.724;2022-12-18T13:49:38;18.95;42.73
75652;HTU21D;64248;43.602;39.724;2022-12-18T13:52:26;18.86;43.07
75652;HTU21D;64248;43.602;39.724;2022-12-18T13:54:54;18.80;43.40
75652;HTU21D;64248;43.602;39.724;2022-12-18T13:57:35;18.73;43.43
75652;HTU21D;64248;43.602;39.724;2022-12-18T14:02:48;18.54;44.10
75652;HTU21D;64248;43.602;39.724;2022-12-18T14:05:27;18.46;44.61
75652;HTU21D;64248;43.602;39.724;2022-12-18T14:07:54;18.36;44.35
75652;HTU21D;64248;43.602;39.724;2022-12-18T14:10:21;18.36;45.54
75652;HTU21D;64248;43.602;39.724;2022-12-18T14:12:49;18.52;46.78
75652;HTU21D;64248;43.602;39.724;2022-12-18T14:15:41;18.84;46.60
75652;HTU21D;64248;43.602;39.724;2022-12-18T14:21:00;19.50;45.73
75652;HTU21D;64248;43.602;39.724;2022-12-18T14:25:56;19.72;44.86
75652;HTU21D;64248;43.602;39.724;2022-12-18T14:28:21;19.58;44.78
75652;HTU21D;64248;43.602;39.724;2022-12-18T14:30:48;19.40;45.07
75652;HTU21D;64248;43.602;39.724;2022-12-18T14:33:19;19.21;45.20
75652;HTU21D;64248;43.602;39.724;2022-12-18T14:36:00;19.01;45.41
75652;HTU21D;64248;43.602;39.724;2022-12-18T14:38:30;18.79;45.98
75652;HTU21D;64248;43.602;39.724;2022-12-18T14:40:58;18.59;46.19
75652;HTU21D;64248;43.602;39.724;2022-12-18T14:43:26;18.41;46.62
75652;HTU21D;64248;43.602;39.724;2022-12-18T14:45:53;18.23;47.10
75652;HTU21D;64248;43.602;39.724;2022-12-18T14:48:41;18.09;47.37
75652;HTU21D;64248;43.602;39.724;2022-12-18T14:53:46;17.81;48.21
75652;HTU21D;64248;43.602;39.724;2022-12-18T14:56:21;17.67;48.60
75652;HTU21D;64248;43.602;39.724;2022-12-18T14:58:54;17.55;48.90
75652;HTU21D;64248;43.602;39.724;2022-12-18T15:01:36;17.46;49.01
75652;HTU21D;64248;43.602;39.724;2022-12-18T15:04:04;17.36;49.32
75652;HTU21D;64248;43.602;39.724;2022-12-18T15:06:36;17.49;49.43
75652;HTU21D;64248;43.602;39.724;2022-12-18T15:09:06;17.74;49.18
75652;HTU21D;64248;43.602;39.724;2022-12-18T15:11:47;17.98;48.66
75652;HTU21D;64248;43.602;39.724;2022-12-18T15:17:05;18.24;48.18
75652;HTU21D;64248;43.602;39.724;2022-12-18T15:19:42;18.30;47.90
75652;HTU21D;64248;43.602;39.724;2022-12-18T15:24:49;18.36;47.85
75652;HTU21D;64248;43.602;39.724;2022-12-18T15:32:33;18.26;47.97
75652;HTU21D;64248;43.602;39.724;2022-12-18T15:35:21;18.23;48.05
75652;HTU21D;64248;43.602;39.724;2022-12-18T15:37:48;18.21;48.26
75652;HTU21D;64248;43.602;39.724;2022-12-18T15:40:17;18.22;48.24
75652;HTU21D;64248;43.602;39.724;2022-12-18T15:42:44;18.26;48.24
75652;HTU21D;64248;43.602;39.724;2022-12-18T15:45:29;18.36;48.22
75652;HTU21D;64248;43.602;39.724;2022-12-18T15:47:55;18.47;48.24
75652;HTU21D;64248;43.602;39.724;2022-12-18T15:50:21;18.63;48.31
75652;HTU21D;64248;43.602;39.724;2022-12-18T15:52:49;18.79;48.18
75652;HTU21D;64248;43.602;39.724;2022-12-18T15:55:22;18.97;48.03
75652;HTU21D;64248;43.602;39.724;2022-12-18T15:58:08;19.15;47.74
75652;HTU21D;64248;43.602;39.724;2022-12-18T16:00:36;19.27;47.59
75652;HTU21D;64248;43.602;39.724;2022-12-18T16:03:03;19.40;47.57
75652;HTU21D;64248;43.602;39.724;2022-12-18T16:05:43;19.52;47.31
75652;HTU21D;64248;43.602;39.724;2022-12-18T16:08:12;19.68;47.02
75652;HTU21D;64248;43.602;39.724;2022-12-18T16:10:39;19.86;47.35
75652;HTU21D;64248;43.602;39.724;2022-12-18T16:13:09;20.03;47.21
75652;HTU21D;64248;43.602;39.724;2022-12-18T16:15:35;20.16;46.96
75652;HTU21D;64248;43.602;39.724;2022-12-18T16:18:01;20.25;46.71
75652;HTU21D;64248;43.602;39.724;2022-12-18T16:20:27;20.29;46.74
75652;HTU21D;64248;43.602;39.724;2022-12-18T16:22:53;20.35;46.75
75652;HTU21D;64248;43.602;39.724;2022-12-18T16:25:21;20.40;46.60
75652;HTU21D;64248;43.602;39.724;2022-12-18T16:27:48;20.42;46.36
75652;HTU21D;64248;43.602;39.724;2022-12-18T16:30:16;20.45;46.38
75652;HTU21D;64248;43.602;39.724;2022-12-18T16:32:43;20.48;46.06
75652;HTU21D;64248;43.602;39.724;2022-12-18T16:35:13;20.50;45.74
75652;HTU21D;64248;43.602;39.724;2022-12-18T16:37:40;20.50;45.51
75652;HTU21D;64248;43.602;39.724;2022-12-18T16:40:08;20.47;45.48
75652;HTU21D;64248;43.602;39.724;2022-12-18T16:42:36;20.47;45.52
75652;HTU21D;64248;43.602;39.724;2022-12-18T16:45:03;20.47;45.43
75652;HTU21D;64248;43.602;39.724;2022-12-18T16:47:29;20.43;45.61
75652;HTU21D;64248;43.602;39.724;2022-12-18T16:49:55;20.42;45.83
75652;HTU21D;64248;43.602;39.724;2022-12-18T16:52:21;20.42;46.07
75652;HTU21D;64248;43.602;39.724;2022-12-18T16:54:48;20.39;45.93
75652;HTU21D;64248;43.602;39.724;2022-12-18T16:57:16;20.39;46.02
75652;HTU21D;64248;43.602;39.724;2022-12-18T16:59:42;20.37;46.16
75652;HTU21D;64248;43.602;39.724;2022-12-18T17:02:16;20.32;46.27
75652;HTU21D;64248;43.602;39.724;2022-12-18T17:04:43;20.30;46.27
75652;HTU21D;64248;43.602;39.724;2022-12-18T17:07:10;20.26;46.43
75652;HTU21D;64248;43.602;39.724;2022-12-18T17:09:36;20.22;46.46
75652;HTU21D;64248;43.602;39.724;2022-12-18T17:12:03;20.17;46.47
75652;HTU21D;64248;43.602;39.724;2022-12-18T17:14:29;20.15;46.19
75652;HTU21D;64248;43.602;39.724;2022-12-18T17:16:55;20.13;45.96
75652;HTU21D;64248;43.602;39.724;2022-12-18T17:19:22;20.11;45.95
75652;HTU21D;64248;43.602;39.724;2022-12-18T17:21:50;20.09;46.05
75652;HTU21D;64248;43.602;39.724;2022-12-18T17:24:16;20.09;46.27
75652;HTU21D;64248;43.602;39.724;2022-12-18T17:26:42;20.11;46.37
75652;HTU21D;64248;43.602;39.724;2022-12-18T17:29:12;20.20;46.59
75652;HTU21D;64248;43.602;39.724;2022-12-18T17:31:38;20.40;47.27